createdAt,value
2022-10-26T00:07:41.367Z,83.70
2022-10-26T00:17:45.300Z,84.76
2022-10-26T00:27:47.925Z,85.37
2022-10-26T00:37:54.846Z,85.15
2022-10-26T00:47:59.597Z,84.70
2022-10-26T00:58:04.973Z,85.23
2022-10-26T01:08:08.666Z,84.55
2022-10-26T01:18:14.424Z,85.69
2022-10-26T01:28:21.323Z,85.85
2022-10-26T01:38:31.339Z,85.93
2022-10-26T01:48:35.226Z,87.22
2022-10-26T01:58:57.314Z,86.49
2022-10-26T02:09:08.116Z,86.46
2022-10-26T02:19:18.726Z,86.24
2022-10-26T02:29:21.603Z,86.11
2022-10-26T02:39:26.749Z,85.50
2022-10-26T02:49:29.506Z,85.50
2022-10-26T02:59:35.409Z,87.42
2022-10-26T03:09:37.825Z,86.51
2022-10-26T03:19:43.445Z,86.71
2022-10-26T03:29:45.885Z,88.17
2022-10-26T03:39:49.630Z,86.63
2022-10-26T03:49:52.100Z,87.70
2022-10-26T03:59:55.941Z,92.07
2022-10-26T04:09:58.346Z,91.76
2022-10-26T04:20:02.063Z,91.39
2022-10-26T04:30:05.602Z,90.92
2022-10-26T04:40:10.014Z,90.18
2022-10-26T04:50:13.363Z,91.65
2022-10-26T05:00:17.510Z,91.25
2022-10-26T05:10:19.954Z,91.18
2022-10-26T05:20:29.207Z,93.34
2022-10-26T05:30:32.020Z,91.50
2022-10-26T05:40:35.797Z,90.71
2022-10-26T05:50:38.277Z,90.83
2022-10-26T06:00:48.052Z,91.73
2022-10-26T06:10:51.048Z,91.44
2022-10-26T06:21:00.955Z,90.51
2022-10-26T06:31:03.807Z,89.20
2022-10-26T06:41:07.950Z,89.86
2022-10-26T06:51:13.903Z,89.16
2022-10-26T07:01:17.958Z,89.38
2022-10-26T07:11:20.384Z,88.86
2022-10-26T07:21:24.133Z,89.43
2022-10-26T07:31:26.551Z,89.53
2022-10-26T07:41:30.751Z,89.24
2022-10-26T07:51:33.227Z,88.16
2022-10-26T08:01:37.109Z,88.12
2022-10-26T08:11:39.699Z,87.88
2022-10-26T08:21:43.454Z,86.70
2022-10-26T08:31:45.890Z,85.84
2022-10-26T08:41:53.400Z,85.56
2022-10-26T08:51:58.926Z,86.13
2022-10-26T09:02:02.999Z,85.38
2022-10-26T09:12:10.324Z,86.13
2022-10-26T09:22:18.436Z,85.71
2022-10-26T09:32:21.530Z,85.13
2022-10-26T09:42:29.601Z,84.13
2022-10-26T09:52:32.033Z,84.10
2022-10-26T10:02:39.976Z,80.53
2022-10-26T10:12:42.534Z,79.24
2022-10-26T10:22:55.856Z,76.76
2022-10-26T10:33:08.555Z,73.89
2022-10-26T10:43:14.269Z,74.21
2022-10-26T10:53:19.371Z,73.14
2022-10-26T11:03:40.833Z,70.43
2022-10-26T11:13:48.120Z,71.45
2022-10-26T11:23:54.470Z,67.35
2022-10-26T11:34:04.945Z,65.92
2022-10-26T11:44:12.897Z,65.89
2022-10-26T11:54:26.516Z,64.30
2022-10-26T12:04:31.404Z,65.30
2022-10-26T12:14:37.710Z,64.80
2022-10-26T12:24:45.774Z,63.69
2022-10-26T12:35:04.825Z,63.17
2022-10-26T12:45:19.727Z,59.53
2022-10-26T12:55:34.444Z,55.68
2022-10-26T13:05:50.273Z,55.00
2022-10-26T13:15:53.842Z,53.09
2022-10-26T13:26:04.378Z,53.56
2022-10-26T13:36:17.291Z,54.40
2022-10-26T13:46:25.042Z,55.19
2022-10-26T13:56:29.416Z,54.90
2022-10-26T14:06:35.099Z,55.93
2022-10-26T14:16:37.538Z,56.60
2022-10-26T14:26:41.954Z,56.04
2022-10-26T14:36:46.423Z,57.24
2022-10-26T14:46:50.762Z,57.33
2022-10-26T14:56:53.439Z,57.88
2022-10-26T15:07:03.681Z,58.37
2022-10-26T15:17:06.069Z,59.64
2022-10-26T15:27:18.821Z,60.10
2022-10-26T15:37:21.449Z,60.89
2022-10-26T15:47:29.333Z,61.69
2022-10-26T15:57:31.779Z,62.88
2022-10-26T16:07:35.583Z,62.99
2022-10-26T16:17:37.993Z,66.30
2022-10-26T16:27:41.783Z,64.86
2022-10-26T16:37:44.190Z,64.69
2022-10-26T16:47:48.162Z,64.48
2022-10-26T16:57:50.943Z,65.86
2022-10-26T17:07:54.861Z,65.57
2022-10-26T17:17:57.441Z,65.96
2022-10-26T17:28:01.925Z,66.92
2022-10-26T17:38:04.585Z,69.78
2022-10-26T17:48:08.647Z,71.60
2022-10-26T17:58:11.211Z,72.87
2022-10-26T18:08:15.372Z,74.32
2022-10-26T18:18:17.788Z,74.47
2022-10-26T18:28:21.548Z,75.85
2022-10-26T18:38:23.962Z,75.97
2022-10-26T18:48:27.686Z,77.19
2022-10-26T18:58:30.781Z,76.66
2022-10-26T19:08:34.591Z,78.61
2022-10-26T19:18:37.009Z,79.59
2022-10-26T19:28:40.996Z,80.71
2022-10-26T19:38:43.488Z,81.24
2022-10-26T19:48:50.523Z,81.49
2022-10-26T19:58:54.059Z,81.14
2022-10-26T20:08:57.865Z,82.41
2022-10-26T20:19:01.519Z,82.42
2022-10-26T20:29:05.251Z,83.62
2022-10-26T20:39:07.992Z,84.43
2022-10-26T20:49:11.952Z,84.90
2022-10-26T20:59:20.312Z,85.01
2022-10-26T21:09:24.185Z,84.83
2022-10-26T21:19:27.579Z,84.94
2022-10-26T21:29:31.305Z,84.70
2022-10-26T21:39:33.716Z,84.64
2022-10-26T21:49:37.522Z,85.03
2022-10-26T21:59:39.988Z,86.15
2022-10-26T22:09:55.137Z,86.12
2022-10-26T22:20:06.928Z,85.56
2022-10-26T22:30:11.860Z,85.32
2022-10-26T22:40:14.303Z,85.80
2022-10-26T22:50:18.232Z,85.99
2022-10-26T23:00:20.644Z,86.31
2022-10-26T23:10:24.400Z,85.64
2022-10-26T23:20:26.804Z,85.26
2022-10-26T23:30:30.551Z,85.47
2022-10-26T23:40:33.006Z,85.45
2022-10-26T23:50:36.799Z,86.49
